Lord Of The Glens — ZQOE9 — position and weather

sailwx.info

Track history (hours):
 
Tides and Currents Weather Stations Pressure Air Temp Water Temp Dewpoint Dewpoint Depression Visibility Wind Speed Wind Dir Waves Ship Positions

Lord Of The Glens

Operator: V Ships UK Ltd

Last reported at 2018-Oct-18 11:42 UTC. Time now 2018-Nov-14 03:16 UTC.
Position N 56°36' W 005°24'.
Warning: this ship's position is 26 days out of date.

Length 45 m; draft 2.8 m.

Type: Passenger vessel. MMSI: 235000295.

Date/timePositionNaut miles runAvg speedWind from/ knotsBaromVisibWave heightAir tempDewpointWater temp
2018-Oct-18 11:42N 56°36' W 005°24'2 9.3
2018-Oct-18 11:30N 56°35' W 005°24'510.2
2018-Oct-18 11:03N 56°31' W 005°28'110.2
2018-Oct-18 11:00N 56°30' W 005°28'5 0.3
2018-Oct-17 16:58N 56°25' W 005°29'8 2.8
2018-Oct-17 14:00N 56°29' W 005°42'1 0.1
2018-Oct-17 06:17N 56°30' W 005°42'210.2
2018-Oct-17 06:03N 56°28' W 005°38'1 9.8
2018-Oct-17 05:59N 56°28' W 005°38'510.0
2018-Oct-17 05:31N 56°26' W 005°30'1 0.0
2018-Oct-15 16:47N 56°25' W 005°29'2 9.1
2018-Oct-15 16:30N 56°26' W 005°33'5 0.6
2018-Oct-15 07:11N 56°29' W 005°40'211.0
2018-Oct-15 07:02N 56°28' W 005°38'011.8
2018-Oct-15 07:00N 56°28' W 005°38'510.3
2018-Oct-15 06:31N 56°25' W 005°29'1 0.0
2018-Oct-14 15:03N 56°25' W 005°29'0 6.5
2018-Oct-14 15:00N 56°25' W 005°29'5 9.6
2018-Oct-14 14:30N 56°27' W 005°37'3 0.7
2018-Oct-14 10:12N 56°30' W 005°39'210.5
2018-Oct-14 10:04N 56°31' W 005°36'110.3
2018-Oct-14 10:00N 56°31' W 005°36'510.7
2018-Oct-14 09:30N 56°35' W 005°29'1210.6
2018-Oct-14 08:25N 56°43' W 005°14'  
Track history (hours):
 
Tides and Currents Weather Stations Pressure Air Temp Water Temp Dewpoint Dewpoint Depression Visibility Wind Speed Wind Dir Waves Ship Positions

Lord Of The Glens

Operator: V Ships UK Ltd

Last reported at 2018-Oct-18 11:42 UTC. Time now 2018-Nov-14 03:16 UTC.
Position N 56°36' W 005°24'.
Warning: this ship's position is 26 days out of date.

Length 45 m; draft 2.8 m.

Type: Passenger vessel. MMSI: 235000295.

Date/timePositionNaut miles runAvg speedWind from/ knotsBaromVisibWave heightAir tempDewpointWater temp
2018-Oct-18 11:42N 56°36' W 005°24'2 9.3
2018-Oct-18 11:30N 56°35' W 005°24'510.2
2018-Oct-18 11:03N 56°31' W 005°28'110.2
2018-Oct-18 11:00N 56°30' W 005°28'5 0.3
2018-Oct-17 16:58N 56°25' W 005°29'8 2.8
2018-Oct-17 14:00N 56°29' W 005°42'1 0.1
2018-Oct-17 06:17N 56°30' W 005°42'210.2
2018-Oct-17 06:03N 56°28' W 005°38'1 9.8
2018-Oct-17 05:59N 56°28' W 005°38'510.0
2018-Oct-17 05:31N 56°26' W 005°30'1 0.0
2018-Oct-15 16:47N 56°25' W 005°29'2 9.1
2018-Oct-15 16:30N 56°26' W 005°33'5 0.6
2018-Oct-15 07:11N 56°29' W 005°40'211.0
2018-Oct-15 07:02N 56°28' W 005°38'011.8
2018-Oct-15 07:00N 56°28' W 005°38'510.3
2018-Oct-15 06:31N 56°25' W 005°29'1 0.0
2018-Oct-14 15:03N 56°25' W 005°29'0 6.5
2018-Oct-14 15:00N 56°25' W 005°29'5 9.6
2018-Oct-14 14:30N 56°27' W 005°37'3 0.7
2018-Oct-14 10:12N 56°30' W 005°39'210.5
2018-Oct-14 10:04N 56°31' W 005°36'110.3
2018-Oct-14 10:00N 56°31' W 005°36'510.7
2018-Oct-14 09:30N 56°35' W 005°29'1210.6
2018-Oct-14 08:25N 56°43' W 005°14'  

Dump ship's entire track history